Time;durP1;ratioP1;P1;durP2;ratioP2;P2;SDS_P1;SDS_P2;PMS_P1;PMS_P2;Temp;Humidity;BMP_temperature;BMP_pressure;BME280_temperature;BME280_humidity;BME280_pressure;Samples;Min_cycle;Max_cycle;Signal;HPM_P1;HPM_P2
2022/12/15 00:40:20;;;;;;;31.97;18.07;;;-8.10;99.90;;;;;;5072683;28;20785;-44
2022/12/15 00:42:45;;;;;;;31.40;18.23;;;-8.10;99.90;;;;;;5073912;28;20406;-44
2022/12/15 00:45:11;;;;;;;31.80;17.87;;;-8.10;99.90;;;;;;5055784;28;20175;-44
2022/12/15 00:47:36;;;;;;;35.57;19.93;;;-8.10;99.90;;;;;;5074487;28;20187;-44
2022/12/15 01:20:17;;;;;;;39.07;21.37;;;-8.30;99.90;;;;;;5073071;28;20479;-42
2022/12/15 01:22:53;;;;;;;33.73;20.03;;;-8.20;99.90;;;;;;5073198;28;20413;-45
2022/12/15 01:25:22;;;;;;;33.13;18.77;;;-8.30;99.90;;;;;;5072678;28;20168;-44
2022/12/15 01:27:48;;;;;;;30.80;18.13;;;-8.30;99.90;;;;;;5072746;28;20453;-45
2022/12/15 01:30:17;;;;;;;33.27;18.87;;;-8.30;99.90;;;;;;5072938;28;20855;-44
2022/12/15 01:32:43;;;;;;;54.07;20.03;;;-8.30;99.90;;;;;;5072639;28;20878;-44
2022/12/15 01:35:10;;;;;;;34.33;18.60;;;-8.30;99.90;;;;;;5072819;28;20449;-44
2022/12/15 01:37:35;;;;;;;32.60;19.30;;;-8.40;99.90;;;;;;5055170;28;20654;-44
2022/12/15 01:42:46;;;;;;;39.47;20.40;;;-8.40;99.90;;;;;;5073347;28;20538;-46
2022/12/15 01:45:30;;;;;;;32.20;19.07;;;-8.40;99.90;;;;;;5073088;28;20417;-46
2022/12/15 01:48:05;;;;;;;35.30;19.53;;;-8.40;99.90;;;;;;5054738;28;20655;-45
2022/12/15 01:50:36;;;;;;;33.73;18.43;;;-8.40;99.90;;;;;;5073982;28;20954;-46
2022/12/15 01:53:02;;;;;;;44.17;20.70;;;-8.40;99.90;;;;;;5058763;28;20536;-46
2022/12/15 01:55:29;;;;;;;38.97;21.27;;;-8.40;99.90;;;;;;5076166;28;20501;-46
2022/12/15 01:58:01;;;;;;;37.63;19.40;;;-8.40;99.90;;;;;;5076096;28;20440;-46
2022/12/15 02:00:27;;;;;;;37.40;20.47;;;-8.40;99.90;;;;;;5076008;28;21008;-46
2022/12/15 02:02:53;;;;;;;37.00;20.33;;;-8.40;99.90;;;;;;5075948;28;20475;-45
2022/12/15 02:05:20;;;;;;;37.43;20.43;;;-8.40;99.90;;;;;;5076033;28;20191;-46
2022/12/15 02:07:46;;;;;;;32.50;19.30;;;-8.40;99.90;;;;;;5075925;28;20987;-44
2022/12/15 02:10:12;;;;;;;41.60;22.00;;;-8.40;99.90;;;;;;5076150;28;20433;-46
2022/12/15 02:13:01;;;;;;;41.53;20.73;;;-8.40;99.90;;;;;;5075980;28;20253;-46
2022/12/15 02:15:36;;;;;;;33.43;19.53;;;-8.40;99.90;;;;;;5076157;28;20227;-45
2022/12/15 02:18:25;;;;;;;34.77;19.70;;;-8.40;99.90;;;;;;5075906;28;20387;-46
2022/12/15 02:20:55;;;;;;;33.87;19.07;;;-8.40;99.90;;;;;;5064960;28;20427;-45
2022/12/15 02:23:35;;;;;;;34.87;19.47;;;-8.40;99.90;;;;;;5076081;28;20744;-46
2022/12/15 02:26:16;;;;;;;34.90;18.67;;;-8.40;99.90;;;;;;5075909;28;20390;-46
2022/12/15 02:29:09;;;;;;;33.97;18.63;;;-8.50;99.90;;;;;;5057842;28;20448;-46
2022/12/15 02:31:49;;;;;;;37.90;20.80;;;-8.40;99.90;;;;;;5075961;28;20472;-47
2022/12/15 02:34:33;;;;;;;31.47;18.83;;;-8.50;99.90;;;;;;5075836;28;20386;-46
2022/12/15 02:37:30;;;;;;;35.30;18.67;;;-8.50;99.90;;;;;;5075687;28;20401;-47
2022/12/15 02:39:55;;;;;;;35.37;19.17;;;-8.50;99.90;;;;;;5075520;28;20807;-46
2022/12/15 02:42:22;;;;;;;37.37;19.73;;;-8.40;99.90;;;;;;5075603;28;20418;-47
2022/12/15 02:44:52;;;;;;;36.50;19.40;;;-8.40;99.90;;;;;;5075377;28;20180;-45
2022/12/15 02:47:37;;;;;;;33.53;17.97;;;-8.40;99.90;;;;;;5076164;28;20747;-44
2022/12/15 02:50:40;;;;;;;31.93;17.83;;;-8.30;99.90;;;;;;5075412;28;20432;-47
2022/12/15 02:53:28;;;;;;;32.33;18.00;;;-8.30;99.90;;;;;;5075346;28;20428;-47
2022/12/15 02:56:13;;;;;;;40.17;18.40;;;-8.30;99.90;;;;;;5075113;28;20400;-47
2022/12/15 02:59:06;;;;;;;33.70;17.97;;;-8.30;99.90;;;;;;5074989;28;20438;-47
2022/12/15 03:01:52;;;;;;;38.53;18.67;;;-8.30;99.90;;;;;;5074286;28;20442;-47
2022/12/15 03:04:18;;;;;;;35.47;18.47;;;-8.30;99.90;;;;;;5075110;28;20449;-47
2022/12/15 03:06:44;;;;;;;32.00;17.67;;;-8.40;99.90;;;;;;5074908;28;20412;-47
2022/12/15 03:09:11;;;;;;;33.73;18.37;;;-8.40;99.90;;;;;;5074669;28;20791;-46
2022/12/15 03:11:37;;;;;;;32.63;18.13;;;-8.40;99.90;;;;;;5074630;28;20449;-46
2022/12/15 03:14:02;;;;;;;33.00;18.10;;;-8.30;99.90;;;;;;5074712;28;20406;-47
2022/12/15 03:16:28;;;;;;;34.00;18.03;;;-8.30;99.90;;;;;;5074468;28;20199;-48
2022/12/15 03:18:53;;;;;;;37.27;18.33;;;-8.30;99.90;;;;;;5074732;28;20202;-46
2022/12/15 03:21:19;;;;;;;36.50;18.50;;;-8.30;99.90;;;;;;5074794;28;20178;-45
2022/12/15 03:23:45;;;;;;;37.13;18.07;;;-8.30;99.90;;;;;;5094692;28;20178;-44
2022/12/15 03:26:10;;;;;;;34.53;17.20;;;-8.30;99.90;;;;;;5090829;28;20175;-46
2022/12/15 03:28:36;;;;;;;28.77;17.27;;;-8.30;99.90;;;;;;5075009;28;20187;-44
2022/12/15 03:31:02;;;;;;;30.77;16.50;;;-8.30;99.90;;;;;;5074666;28;20204;-46
2022/12/15 03:33:28;;;;;;;31.50;16.57;;;-8.30;99.90;;;;;;5074447;28;20631;-46
2022/12/15 03:35:54;;;;;;;34.20;18.23;;;-8.40;99.90;;;;;;5074338;28;20670;-46
2022/12/15 03:38:19;;;;;;;32.17;17.23;;;-8.40;99.90;;;;;;5074145;28;20175;-45
2022/12/15 03:40:45;;;;;;;43.67;18.10;;;-8.40;99.90;;;;;;5074317;28;20432;-46
2022/12/15 03:43:11;;;;;;;32.70;16.57;;;-8.40;99.90;;;;;;5074233;28;20206;-45
2022/12/15 03:45:36;;;;;;;34.00;18.40;;;-8.40;99.90;;;;;;5074046;28;20644;-46
2022/12/15 03:48:02;;;;;;;31.57;17.30;;;-8.40;99.90;;;;;;5056178;28;20642;-44
2022/12/15 03:50:28;;;;;;;35.80;16.50;;;-8.30;99.90;;;;;;5074123;28;20279;-47
2022/12/15 03:53:03;;;;;;;30.10;16.83;;;-8.30;99.90;;;;;;5073959;28;20180;-45
2022/12/15 03:55:30;;;;;;;32.97;17.67;;;-8.30;99.90;;;;;;5074286;28;20891;-45
2022/12/15 03:57:56;;;;;;;30.73;17.53;;;-8.30;99.90;;;;;;5073739;28;20417;-45
2022/12/15 04:00:23;;;;;;;34.63;17.43;;;-8.30;99.90;;;;;;5073872;28;20437;-45
2022/12/15 04:02:49;;;;;;;30.63;15.73;;;-8.40;99.90;;;;;;5073712;28;20448;-46
2022/12/15 04:05:24;;;;;;;34.57;17.13;;;-8.40;99.90;;;;;;5074182;28;20787;-46
2022/12/15 04:07:50;;;;;;;35.60;18.80;;;-8.40;99.90;;;;;;5074040;28;20403;-44
2022/12/15 04:10:16;;;;;;;35.20;18.93;;;-8.40;99.90;;;;;;5073774;28;20472;-46
2022/12/15 04:12:41;;;;;;;35.63;18.93;;;-8.30;99.90;;;;;;5073507;28;20492;-46
2022/12/15 04:15:08;;;;;;;34.53;17.30;;;-8.30;99.90;;;;;;5054895;28;20259;-46
2022/12/15 04:17:34;;;;;;;43.37;18.27;;;-8.30;99.90;;;;;;5073692;28;20168;-46
2022/12/15 04:20:09;;;;;;;34.97;17.30;;;-8.30;99.90;;;;;;5073439;28;20453;-47
2022/12/15 04:22:40;;;;;;;32.70;16.80;;;-8.30;99.90;;;;;;5073668;28;20217;-46
2022/12/15 05:33:56;;;;;;;35.07;17.37;;;-8.40;99.90;;;;;;5077303;28;20904;-46
2022/12/15 05:36:22;;;;;;;35.30;17.93;;;-8.40;99.90;;;;;;5077093;28;20425;-46
2022/12/15 05:38:51;;;;;;;31.23;16.07;;;-8.40;99.90;;;;;;5076996;28;20426;-45
2022/12/15 05:41:18;;;;;;;35.37;16.37;;;-8.40;99.90;;;;;;5076790;28;20419;-47
2022/12/15 05:43:45;;;;;;;39.20;17.67;;;-8.50;99.90;;;;;;5076451;28;20416;-46
2022/12/15 05:46:11;;;;;;;35.60;16.93;;;-8.50;99.90;;;;;;5059228;28;20394;-45
2022/12/15 05:48:37;;;;;;;37.33;16.67;;;-8.50;99.90;;;;;;5076572;28;20416;-47
2022/12/15 05:51:07;;;;;;;36.63;15.77;;;-8.50;99.90;;;;;;5076282;28;20954;-47
2022/12/15 05:53:34;;;;;;;31.63;14.60;;;-8.50;99.90;;;;;;5078240;28;20716;-46
2022/12/15 05:56:01;;;;;;;28.53;14.97;;;-8.50;99.90;;;;;;5100428;28;20434;-46
2022/12/15 05:58:27;;;;;;;38.20;14.27;;;-8.50;99.90;;;;;;5085997;28;20516;-46
2022/12/15 06:00:52;;;;;;;35.67;15.33;;;-8.50;99.90;;;;;;5076749;28;20442;-46
2022/12/15 06:03:18;;;;;;;31.90;15.50;;;-8.50;99.90;;;;;;5076794;28;20189;-46
2022/12/15 06:05:43;;;;;;;38.53;15.47;;;-8.50;99.90;;;;;;5076040;28;20197;-46
2022/12/15 06:08:09;;;;;;;39.17;15.90;;;-8.60;99.90;;;;;;5058273;28;20542;-46
2022/12/15 06:10:34;;;;;;;31.53;15.30;;;-8.60;99.90;;;;;;5075839;28;20204;-46
2022/12/15 06:13:00;;;;;;;27.07;15.20;;;-8.60;99.90;;;;;;5076593;28;20180;-46
2022/12/15 06:15:26;;;;;;;33.63;15.70;;;-8.60;99.90;;;;;;5075950;28;20632;-46
2022/12/15 06:17:54;;;;;;;42.23;15.27;;;-8.70;99.90;;;;;;5075936;28;20453;-46
2022/12/15 06:20:20;;;;;;;28.53;14.80;;;-8.70;99.90;;;;;;5057981;28;20199;-45
2022/12/15 06:22:45;;;;;;;29.17;14.37;;;-8.70;99.90;;;;;;5075870;28;20790;-46
2022/12/15 06:25:11;;;;;;;33.30;16.40;;;-8.70;99.90;;;;;;5075767;28;20184;-46
2022/12/15 06:27:36;;;;;;;30.23;15.50;;;-8.70;99.90;;;;;;5075818;28;20186;-46
2022/12/15 06:30:02;;;;;;;37.63;15.53;;;-8.80;99.90;;;;;;5075677;28;20206;-46
2022/12/15 06:32:28;;;;;;;26.27;14.60;;;-8.70;99.90;;;;;;5075487;28;20220;-46
2022/12/15 06:34:53;;;;;;;31.80;14.53;;;-8.70;99.90;;;;;;5076054;28;20401;-46
2022/12/15 06:37:19;;;;;;;27.53;14.37;;;-8.70;99.90;;;;;;5074355;28;20186;-46
2022/12/15 06:39:45;;;;;;;26.47;14.07;;;-8.80;99.90;;;;;;5075380;28;20249;-46
2022/12/15 06:42:10;;;;;;;30.33;14.93;;;-8.80;99.90;;;;;;5075778;28;20187;-45
2022/12/15 06:44:36;;;;;;;34.43;14.93;;;-8.80;99.90;;;;;;5075386;28;20207;-46
2022/12/15 06:47:02;;;;;;;28.03;13.90;;;-8.80;99.90;;;;;;5075322;28;20183;-46
2022/12/15 06:49:28;;;;;;;29.30;15.57;;;-8.80;99.90;;;;;;5075349;28;20732;-44
2022/12/15 06:51:53;;;;;;;25.93;14.03;;;-8.80;99.90;;;;;;5075139;28;20461;-45
2022/12/15 06:54:19;;;;;;;29.13;14.10;;;-8.80;99.90;;;;;;5075160;28;20225;-47
2022/12/15 06:56:44;;;;;;;26.53;12.80;;;-8.80;99.90;;;;;;5075579;28;20195;-46
2022/12/15 06:59:11;;;;;;;24.63;13.63;;;-8.80;99.90;;;;;;5075140;28;20284;-46
2022/12/15 07:01:37;;;;;;;39.40;15.50;;;-8.80;99.90;;;;;;5057269;28;20208;-45
2022/12/15 07:04:04;;;;;;;33.67;14.77;;;-8.80;99.90;;;;;;5075199;28;20538;-46
2022/12/15 07:06:37;;;;;;;31.20;14.53;;;-8.80;99.90;;;;;;5075297;28;20185;-46
2022/12/15 07:09:06;;;;;;;28.30;14.20;;;-8.80;99.90;;;;;;5075170;28;20514;-47
2022/12/15 07:11:31;;;;;;;35.63;16.73;;;-8.80;99.90;;;;;;5075160;28;20488;-46
2022/12/15 07:13:57;;;;;;;35.93;16.10;;;-8.80;99.90;;;;;;5075061;28;20416;-47
2022/12/15 07:16:24;;;;;;;25.17;14.10;;;-8.90;99.90;;;;;;5074933;28;20181;-46
2022/12/15 07:18:50;;;;;;;28.00;14.27;;;-8.80;99.90;;;;;;5074848;28;20194;-46
2022/12/15 07:21:16;;;;;;;31.20;14.37;;;-8.80;99.90;;;;;;5074730;28;20997;-46
2022/12/15 07:23:41;;;;;;;32.13;15.90;;;-8.80;99.90;;;;;;5056777;28;20185;-46
2022/12/15 07:26:08;;;;;;;28.47;14.40;;;-8.70;99.90;;;;;;5074725;28;20455;-45
2022/12/15 07:28:35;;;;;;;30.73;14.67;;;-8.60;99.90;;;;;;5074547;28;20179;-46
2022/12/15 07:31:06;;;;;;;40.33;15.47;;;-8.60;99.90;;;;;;5074483;28;20469;-46
2022/12/15 07:33:33;;;;;;;34.20;16.53;;;-8.50;99.90;;;;;;5074477;28;20845;-46
2022/12/15 07:36:00;;;;;;;37.97;17.37;;;-8.50;99.90;;;;;;5074732;28;20934;-46
2022/12/15 07:38:26;;;;;;;37.60;17.63;;;-8.50;99.90;;;;;;5074182;28;20453;-45
2022/12/15 07:40:52;;;;;;;39.13;16.83;;;-8.50;99.90;;;;;;5074291;28;20502;-46
2022/12/15 07:43:18;;;;;;;35.90;15.77;;;-8.50;99.90;;;;;;5074471;28;20498;-46
2022/12/15 07:45:43;;;;;;;28.33;15.10;;;-8.50;99.90;;;;;;5074384;28;20267;-45
2022/12/15 07:48:09;;;;;;;35.80;16.83;;;-8.40;99.90;;;;;;5073915;28;20600;-47
2022/12/15 07:50:38;;;;;;;34.23;15.03;;;-8.40;99.90;;;;;;5074173;28;20210;-47
2022/12/15 07:53:04;;;;;;;32.43;15.40;;;-8.40;99.90;;;;;;5073958;28;20176;-46
2022/12/15 07:55:30;;;;;;;29.53;14.60;;;-8.40;99.90;;;;;;5074749;28;20752;-47
2022/12/15 07:57:55;;;;;;;32.53;17.37;;;-8.40;99.90;;;;;;5074581;28;20413;-45
2022/12/15 08:00:21;;;;;;;29.93;15.23;;;-8.40;99.90;;;;;;5073932;28;20660;-44
2022/12/15 08:02:46;;;;;;;33.73;17.17;;;-8.40;99.90;;;;;;5073814;28;20222;-46
2022/12/15 08:05:12;;;;;;;33.30;16.13;;;-8.30;99.90;;;;;;5073962;28;20180;-45
2022/12/15 08:07:37;;;;;;;44.77;18.53;;;-8.30;99.90;;;;;;5073990;28;20256;-39
2022/12/15 08:10:03;;;;;;;44.03;19.43;;;-8.30;99.90;;;;;;5073666;28;20246;-40
2022/12/15 08:12:30;;;;;;;46.13;20.03;;;-8.20;99.90;;;;;;5073611;28;20303;-41
2022/12/15 08:14:55;;;;;;;37.10;17.57;;;-8.10;99.90;;;;;;5073481;28;20188;-39
2022/12/15 08:17:21;;;;;;;34.47;16.10;;;-8.10;99.90;;;;;;5074068;28;20429;-40
2022/12/15 08:19:47;;;;;;;40.27;16.10;;;-8.10;99.90;;;;;;5073607;28;20686;-40
2022/12/15 08:22:14;;;;;;;42.47;14.03;;;-8.00;99.90;;;;;;5073837;28;20513;-40
2022/12/15 08:24:41;;;;;;;34.27;14.87;;;-7.90;99.90;;;;;;5073874;28;20537;-39
2022/12/15 08:27:07;;;;;;;35.30;16.17;;;-7.80;99.90;;;;;;5088919;28;20396;-41
2022/12/15 08:29:33;;;;;;;33.37;14.33;;;-7.70;99.90;;;;;;5091542;28;20448;-40
2022/12/15 08:31:59;;;;;;;35.77;15.37;;;-7.60;99.90;;;;;;5073760;28;20214;-40
2022/12/15 08:34:25;;;;;;;26.13;11.67;;;-7.60;99.90;;;;;;5074096;28;20410;-38
2022/12/15 08:36:50;;;;;;;29.77;14.60;;;-7.50;99.90;;;;;;5073570;28;20423;-40
2022/12/15 08:39:16;;;;;;;27.03;12.07;;;-7.40;99.90;;;;;;5073524;28;20204;-39
2022/12/15 08:41:42;;;;;;;35.10;15.83;;;-7.30;99.90;;;;;;5073475;28;20183;-40
2022/12/15 08:44:08;;;;;;;35.17;15.97;;;-7.30;99.90;;;;;;5055075;28;20186;-38
2022/12/15 08:46:34;;;;;;;36.83;15.73;;;-7.20;99.90;;;;;;5073356;28;20183;-39
2022/12/15 08:49:01;;;;;;;31.13;16.00;;;-7.20;99.90;;;;;;5073000;28;20231;-39
2022/12/15 08:51:29;;;;;;;30.87;14.07;;;-7.20;99.90;;;;;;5073103;28;20464;-39
2022/12/15 08:53:58;;;;;;;31.87;14.20;;;-7.10;99.90;;;;;;5055281;28;20471;-38
2022/12/15 08:56:25;;;;;;;37.97;15.40;;;-7.00;99.90;;;;;;5073124;28;20807;-39
2022/12/15 08:59:00;;;;;;;37.00;15.93;;;-6.90;99.90;;;;;;5073651;28;20496;-39
2022/12/15 09:01:28;;;;;;;30.93;14.77;;;-6.90;99.90;;;;;;5080056;28;21057;-41
2022/12/15 09:03:55;;;;;;;27.43;14.97;;;-6.80;99.90;;;;;;5079775;28;20421;-40
2022/12/15 09:06:27;;;;;;;40.47;14.93;;;-6.70;99.90;;;;;;5061662;28;20429;-41
2022/12/15 09:08:57;;;;;;;31.70;15.30;;;-6.70;99.90;;;;;;5061737;28;20581;-40
2022/12/15 09:11:24;;;;;;;32.57;15.50;;;-6.60;99.90;;;;;;5080392;28;20862;-42
2022/12/15 09:13:50;;;;;;;28.37;12.33;;;-6.50;99.90;;;;;;5079699;28;20751;-40
2022/12/15 09:16:17;;;;;;;33.87;16.40;;;-6.50;99.90;;;;;;5061964;28;20421;-39
2022/12/15 09:18:48;;;;;;;27.57;13.67;;;-6.30;99.90;;;;;;5080003;28;20449;-40
2022/12/15 09:21:14;;;;;;;31.93;13.90;;;-6.20;99.90;;;;;;5079705;28;20513;-40
2022/12/15 09:23:40;;;;;;;37.27;16.40;;;-6.10;99.90;;;;;;5079505;28;20415;-41
2022/12/15 09:26:08;;;;;;;29.10;15.33;;;-6.00;99.90;;;;;;5079472;28;20417;-41
2022/12/15 09:28:34;;;;;;;43.70;17.17;;;-5.90;99.90;;;;;;5079847;28;20168;-40
2022/12/15 09:31:08;;;;;;;32.03;16.43;;;-5.80;99.90;;;;;;5079523;28;20468;-40
2022/12/15 09:33:34;;;;;;;33.57;17.07;;;-5.70;99.90;;;;;;5079482;28;20509;-40
2022/12/15 09:36:01;;;;;;;34.00;15.50;;;-5.60;99.90;;;;;;5079974;28;20421;-40
2022/12/15 09:38:26;;;;;;;28.03;12.77;;;-5.50;99.90;;;;;;5079526;28;20409;-41
2022/12/15 09:40:52;;;;;;;26.13;13.30;;;-5.40;99.90;;;;;;5079648;28;20432;-40
2022/12/15 09:43:25;;;;;;;32.67;15.27;;;-5.20;99.90;;;;;;5079538;28;20218;-40
2022/12/15 09:46:07;;;;;;;32.97;17.20;;;-5.10;99.90;;;;;;5079403;28;20263;-40
2022/12/15 09:48:42;;;;;;;36.17;17.77;;;-5.00;99.90;;;;;;5080006;28;20390;-40
2022/12/15 09:51:11;;;;;;;34.23;15.67;;;-4.90;99.90;;;;;;5079225;28;20467;-39
2022/12/15 09:53:38;;;;;;;27.30;13.17;;;-4.80;99.90;;;;;;5061289;28;20414;-40
2022/12/15 09:56:16;;;;;;;31.07;16.33;;;-4.70;99.90;;;;;;5079473;28;20504;-41
2022/12/15 09:59:15;;;;;;;24.93;13.63;;;-4.60;99.90;;;;;;5061137;28;20961;-40
2022/12/15 10:02:05;;;;;;;21.23;11.43;;;-4.50;99.90;;;;;;5079289;28;20464;-40
2022/12/15 10:04:56;;;;;;;27.03;13.77;;;-4.40;99.90;;;;;;5079525;28;20402;-40
2022/12/15 10:07:45;;;;;;;34.20;14.77;;;-4.30;99.90;;;;;;5079308;28;20410;-40
2022/12/15 10:10:28;;;;;;;27.53;13.30;;;-4.20;99.90;;;;;;5060855;28;20962;-40
2022/12/15 10:12:57;;;;;;;22.23;12.20;;;-4.20;99.90;;;;;;5076264;28;20979;-42
2022/12/15 10:15:29;;;;;;;15.33;8.73;;;-4.20;99.90;;;;;;5075787;28;20418;-39
2022/12/15 10:18:14;;;;;;;30.73;13.30;;;-4.10;99.90;;;;;;5076488;28;20445;-41
2022/12/15 10:20:40;;;;;;;26.33;11.83;;;-4.10;99.90;;;;;;5076066;28;20426;-39
2022/12/15 10:23:12;;;;;;;13.93;6.93;;;-4.00;99.90;;;;;;5075840;28;20419;-42
2022/12/15 10:25:38;;;;;;;27.97;13.67;;;-4.00;99.90;;;;;;5075995;28;20184;-41
2022/12/15 10:28:19;;;;;;;27.93;12.70;;;-3.90;99.90;;;;;;5075823;28;20787;-42
2022/12/15 10:31:23;;;;;;;27.70;13.57;;;-3.80;99.90;;;;;;5075446;28;20447;-42
2022/12/15 10:33:55;;;;;;;31.10;15.90;;;-3.70;99.90;;;;;;5057483;28;20426;-41
2022/12/15 10:36:21;;;;;;;28.43;14.67;;;-3.60;99.90;;;;;;5075487;28;20387;-42
2022/12/15 10:38:47;;;;;;;23.80;12.60;;;-3.60;99.90;;;;;;5075321;28;20488;-41
2022/12/15 10:41:17;;;;;;;24.33;15.00;;;-3.50;99.90;;;;;;5075586;28;20571;-40
2022/12/15 10:43:48;;;;;;;28.70;15.37;;;-3.50;99.90;;;;;;5075645;28;20212;-39
2022/12/15 10:46:20;;;;;;;32.47;16.70;;;-3.50;99.90;;;;;;5075723;28;20413;-42
2022/12/15 10:48:58;;;;;;;23.13;12.37;;;-3.40;99.90;;;;;;5075602;28;20466;-41
2022/12/15 10:51:31;;;;;;;30.47;16.20;;;-3.40;99.90;;;;;;5075526;28;20479;-41
2022/12/15 10:53:59;;;;;;;33.43;17.90;;;-3.30;99.90;;;;;;5075512;28;20462;-40
2022/12/15 10:56:27;;;;;;;34.90;17.07;;;-3.30;99.90;;;;;;5075681;28;20411;-44
2022/12/15 10:58:55;;;;;;;29.27;17.50;;;-3.30;99.90;;;;;;5075433;28;20492;-42
2022/12/15 11:01:32;;;;;;;27.90;15.90;;;-3.20;99.90;;;;;;5075262;28;20626;-41
2022/12/15 11:03:59;;;;;;;32.87;17.67;;;-3.20;99.90;;;;;;5075342;28;20412;-41
2022/12/15 11:06:31;;;;;;;37.80;19.13;;;-3.10;99.90;;;;;;5075210;28;20864;-42
2022/12/15 11:09:24;;;;;;;30.10;16.33;;;-3.10;99.90;;;;;;5086371;28;20444;-43
2022/12/15 11:14:46;;;;;;;31.63;16.93;;;-3.00;99.90;;;;;;5075546;28;20879;-42
2022/12/15 11:17:17;;;;;;;33.33;17.43;;;-3.00;99.90;;;;;;5075361;28;20400;-42
2022/12/15 11:20:05;;;;;;;36.80;20.27;;;-2.90;99.90;;;;;;5074655;28;20455;-41
2022/12/15 11:22:39;;;;;;;37.90;19.63;;;-2.80;99.90;;;;;;5074342;28;20416;-43
2022/12/15 11:25:50;;;;;;;35.13;17.90;;;-2.70;99.90;;;;;;5074890;28;20416;-42
2022/12/15 11:28:42;;;;;;;35.53;19.97;;;-2.70;99.90;;;;;;4993109;28;20446;-42
2022/12/15 11:31:33;;;;;;;34.83;20.17;;;-2.60;99.90;;;;;;4982820;28;20475;-43
2022/12/15 11:33:59;;;;;;;43.33;20.97;;;-2.50;99.90;;;;;;5063489;28;20424;-43
2022/12/15 11:36:34;;;;;;;34.37;19.60;;;-2.50;99.90;;;;;;5074625;28;20417;-42
2022/12/15 11:39:19;;;;;;;36.70;19.33;;;-2.40;99.90;;;;;;5074476;28;20537;-42
2022/12/15 11:41:53;;;;;;;37.53;19.37;;;-2.30;99.90;;;;;;5074311;28;20401;-43
2022/12/15 11:44:29;;;;;;;36.93;20.37;;;-2.20;99.90;;;;;;5074343;28;20879;-42
2022/12/15 11:47:26;;;;;;;45.23;20.53;;;-2.10;99.90;;;;;;5074208;28;20829;-41
2022/12/15 11:50:17;;;;;;;25.37;14.93;;;-2.00;99.90;;;;;;5068618;28;20483;-41
2022/12/15 11:52:47;;;;;;;24.87;14.77;;;-1.90;99.90;;;;;;5073967;28;20449;-42
2022/12/15 11:55:24;;;;;;;25.40;14.10;;;-1.90;99.90;;;;;;5074326;28;20451;-41
2022/12/15 11:58:11;;;;;;;29.63;16.13;;;-1.80;99.90;;;;;;5073881;28;20402;-42
2022/12/15 12:00:53;;;;;;;19.87;9.30;;;-1.80;99.90;;;;;;5073789;28;20434;-43
2022/12/15 12:03:50;;;;;;;43.93;19.80;;;-1.80;99.90;;;;;;5055973;28;20523;-42
2022/12/15 12:06:32;;;;;;;35.53;18.70;;;-1.70;99.90;;;;;;5046447;28;20963;-40
2022/12/15 12:09:37;;;;;;;33.53;18.23;;;-1.60;99.90;;;;;;5055947;28;20437;-43
2022/12/15 12:12:29;;;;;;;39.80;19.50;;;-1.60;99.90;;;;;;5072919;28;21021;-42
2022/12/15 12:15:21;;;;;;;34.47;17.40;;;-1.50;99.90;;;;;;5073751;28;20421;-41
2022/12/15 12:18:02;;;;;;;27.77;13.60;;;-1.50;99.90;;;;;;5073658;28;20401;-42
2022/12/15 12:20:52;;;;;;;36.57;19.63;;;-1.40;99.90;;;;;;5055674;28;20438;-42
2022/12/15 12:23:30;;;;;;;31.70;17.37;;;-1.40;99.90;;;;;;5073621;28;20402;-44
2022/12/15 12:26:33;;;;;;;37.83;19.97;;;-1.30;99.90;;;;;;5073864;28;20467;-42
2022/12/15 12:29:17;;;;;;;37.07;20.53;;;-1.20;99.90;;;;;;5073535;28;20429;-41
2022/12/15 12:31:42;;;;;;;43.97;21.10;;;-1.20;99.90;;;;;;5073737;28;20498;-43
2022/12/15 12:34:16;;;;;;;36.33;20.83;;;-1.10;99.90;;;;;;5073223;28;20985;-42
2022/12/15 12:36:43;;;;;;;38.43;21.63;;;-1.10;99.90;;;;;;5073439;28;20164;-42
2022/12/15 12:39:19;;;;;;;38.13;19.30;;;-1.10;99.90;;;;;;5073449;28;20563;-42
2022/12/15 12:42:12;;;;;;;37.07;20.87;;;-1.00;99.90;;;;;;5073916;28;20398;-42
2022/12/15 12:44:38;;;;;;;40.07;21.23;;;-0.90;99.90;;;;;;5073744;28;20725;-43
2022/12/15 12:47:25;;;;;;;37.97;21.70;;;-0.90;99.90;;;;;;5073402;28;20424;-42
2022/12/15 12:49:56;;;;;;;34.17;20.73;;;-0.90;99.90;;;;;;5073558;28;20195;-42
2022/12/15 12:52:25;;;;;;;41.63;21.50;;;-0.80;99.90;;;;;;5073442;28;20472;-42
2022/12/15 12:55:00;;;;;;;34.60;21.00;;;-0.80;99.90;;;;;;5073697;28;20790;-43
2022/12/15 12:57:40;;;;;;;40.80;21.67;;;-0.70;99.90;;;;;;5074025;28;20485;-43
2022/12/15 13:00:14;;;;;;;54.67;26.47;;;-0.70;99.90;;;;;;5073653;28;20484;-44
2022/12/15 13:02:45;;;;;;;48.23;24.70;;;-0.60;99.90;;;;;;5054754;28;20453;-44
2022/12/15 13:05:23;;;;;;;38.70;20.67;;;-0.60;99.90;;;;;;5073614;28;20415;-41
2022/12/15 13:08:08;;;;;;;31.70;20.33;;;-0.60;99.90;;;;;;5072926;28;20415;-43
2022/12/15 13:10:37;;;;;;;38.17;19.77;;;-0.50;99.90;;;;;;5014982;28;20962;-42
2022/12/15 13:13:28;;;;;;;41.97;20.47;;;-0.50;99.90;;;;;;5073201;28;20515;-43
2022/12/15 13:16:12;;;;;;;35.97;20.03;;;-0.50;99.90;;;;;;5062258;28;20527;-42
2022/12/15 13:19:02;;;;;;;37.80;19.37;;;-0.40;99.90;;;;;;5073672;28;20400;-43
2022/12/15 13:24:33;;;;;;;32.40;19.67;;;-0.30;99.90;;;;;;5073243;28;20426;-44
2022/12/15 13:27:08;;;;;;;39.23;21.03;;;-0.30;99.90;;;;;;5073576;28;20484;-43
2022/12/15 13:29:35;;;;;;;33.13;19.30;;;-0.30;99.90;;;;;;5072871;28;20433;-42
2022/12/15 13:32:02;;;;;;;35.20;20.17;;;-0.30;99.90;;;;;;5055234;28;20510;-41
2022/12/15 13:34:40;;;;;;;40.67;21.27;;;-0.20;99.90;;;;;;5073190;28;20184;-44
2022/12/15 13:37:44;;;;;;;39.03;21.87;;;-0.20;99.90;;;;;;5073119;28;20167;-43
2022/12/15 13:40:21;;;;;;;40.43;22.17;;;-0.20;99.90;;;;;;5055694;28;20199;-43
2022/12/15 13:42:57;;;;;;;39.17;22.00;;;-0.10;99.90;;;;;;5073143;28;20422;-43
2022/12/15 13:45:33;;;;;;;35.73;19.97;;;-0.10;99.90;;;;;;5072817;28;20426;-43
2022/12/15 13:47:59;;;;;;;41.17;22.70;;;-0.10;99.90;;;;;;5076760;28;20159;-46
2022/12/15 13:50:35;;;;;;;39.43;21.10;;;-0.10;99.90;;;;;;5076837;28;20442;-44
2022/12/15 13:53:02;;;;;;;37.43;21.33;;;-0.10;99.90;;;;;;5076394;28;21029;-44
2022/12/15 13:55:37;;;;;;;34.83;20.87;;;-0.10;99.90;;;;;;5042532;28;20178;-42
2022/12/15 13:58:11;;;;;;;34.80;20.30;;;-0.10;99.90;;;;;;5076907;28;20868;-44
2022/12/15 14:00:38;;;;;;;35.10;18.93;;;-0.10;99.90;;;;;;5076464;28;20462;-44
2022/12/15 14:03:05;;;;;;;35.70;20.33;;;-0.10;99.90;;;;;;5076251;28;20196;-45
2022/12/15 14:05:31;;;;;;;31.07;18.50;;;0.00;99.90;;;;;;5076572;28;20550;-43
2022/12/15 14:07:59;;;;;;;38.43;20.93;;;-0.10;99.90;;;;;;5076322;28;20203;-44
2022/12/15 14:10:50;;;;;;;37.43;19.20;;;-0.10;99.90;;;;;;5079129;28;20214;-44
2022/12/15 14:13:28;;;;;;;35.27;19.60;;;-0.10;99.90;;;;;;5086310;28;20206;-42
2022/12/15 14:15:55;;;;;;;31.83;19.70;;;-0.10;99.90;;;;;;5085694;28;20159;-44
2022/12/15 14:18:33;;;;;;;35.73;20.40;;;-0.10;99.90;;;;;;5077654;28;20419;-45
2022/12/15 14:21:00;;;;;;;35.70;21.30;;;-0.10;99.90;;;;;;5078458;28;20438;-43
2022/12/15 14:23:28;;;;;;;31.13;19.63;;;-0.10;99.90;;;;;;5077926;28;20398;-44
2022/12/15 14:26:00;;;;;;;38.97;21.23;;;-0.20;99.90;;;;;;5077638;28;20232;-44
2022/12/15 14:28:32;;;;;;;38.93;20.43;;;-0.20;99.90;;;;;;5077952;28;20167;-42
2022/12/15 14:31:24;;;;;;;40.60;20.73;;;-0.20;99.90;;;;;;5058414;28;20167;-42
2022/12/15 14:34:05;;;;;;;36.67;21.17;;;-0.30;99.90;;;;;;5077162;28;20619;-42
2022/12/15 14:36:32;;;;;;;47.63;25.70;;;-0.30;99.90;;;;;;5059077;28;20267;-43
2022/12/15 14:39:10;;;;;;;41.83;23.67;;;-0.40;99.90;;;;;;5077583;28;20666;-42
2022/12/15 14:41:42;;;;;;;40.90;24.40;;;-0.50;99.90;;;;;;5077519;28;20401;-43
2022/12/15 14:44:18;;;;;;;48.63;27.37;;;-0.50;99.90;;;;;;5076883;28;20163;-43
2022/12/15 14:46:48;;;;;;;46.93;26.97;;;-0.60;99.90;;;;;;5058816;28;20638;-43
2022/12/15 14:49:20;;;;;;;41.20;22.57;;;-0.60;99.90;;;;;;5076904;28;20429;-43
2022/12/15 14:51:49;;;;;;;38.73;21.53;;;-0.70;99.90;;;;;;5077018;28;20777;-42
2022/12/15 14:54:52;;;;;;;39.80;21.00;;;-0.70;99.90;;;;;;5076843;28;20419;-43
2022/12/15 14:57:27;;;;;;;36.47;21.10;;;-0.70;99.90;;;;;;5033187;28;20319;-42
2022/12/15 14:59:52;;;;;;;37.63;21.43;;;-0.70;99.90;;;;;;5075835;28;20937;-41
2022/12/15 15:02:25;;;;;;;39.30;20.67;;;-0.80;99.90;;;;;;5074984;28;20443;-42
2022/12/15 15:04:59;;;;;;;36.63;22.33;;;-0.80;99.90;;;;;;5076216;28;20190;-44
2022/12/15 15:07:27;;;;;;;38.33;22.53;;;-0.90;99.90;;;;;;5076052;28;20451;-43
2022/12/15 15:09:53;;;;;;;38.40;22.23;;;-1.00;99.90;;;;;;5074804;28;20442;-43
2022/12/15 15:12:22;;;;;;;48.57;25.33;;;-1.00;99.90;;;;;;5074768;28;20455;-44
2022/12/15 15:14:47;;;;;;;52.63;28.57;;;-1.10;99.90;;;;;;5074731;28;20412;-42
2022/12/15 15:17:15;;;;;;;55.60;29.73;;;-1.20;99.90;;;;;;5075089;28;20397;-44
2022/12/15 15:19:55;;;;;;;52.60;27.53;;;-1.30;99.90;;;;;;5074627;28;20225;-43